sensor_id;sensor_type;location;lat;lon;timestamp;pressure;altitude;pressure_sealevel;temperature;humidity
49178;BME280;35016;55.674;37.468;2023-03-12T01:34:45;96530.75;;;3.59;72.04
49178;BME280;35016;55.674;37.468;2023-03-12T02:00:36;96485.88;;;3.89;72.07
49178;BME280;35016;55.674;37.468;2023-03-12T02:09:42;96470.94;;;4.01;72.09
49178;BME280;35016;55.674;37.468;2023-03-12T02:14:11;96463.91;;;4.06;72.25
49178;BME280;35016;55.674;37.468;2023-03-12T04:31:38;96218.00;;;4.97;73.22
49178;BME280;35016;55.674;37.468;2023-03-12T04:35:15;96220.38;;;4.98;72.96
49178;BME280;35016;55.674;37.468;2023-03-12T04:39:20;96216.78;;;5.03;73.03
49178;BME280;35016;55.674;37.468;2023-03-12T04:43:26;96209.22;;;5.05;72.97
49178;BME280;35016;55.674;37.468;2023-03-12T04:51:42;96209.88;;;5.11;72.77
49178;BME280;35016;55.674;37.468;2023-03-12T05:03:27;96200.81;;;5.20;73.38
49178;BME280;35016;55.674;37.468;2023-03-12T05:07:06;96198.28;;;5.24;73.74
49178;BME280;35016;55.674;37.468;2023-03-12T05:11:47;96175.88;;;5.28;73.38
49178;BME280;35016;55.674;37.468;2023-03-12T05:15:14;96164.53;;;5.32;73.02
49178;BME280;35016;55.674;37.468;2023-03-12T05:18:31;96166.09;;;5.33;73.10
49178;BME280;35016;55.674;37.468;2023-03-12T05:22:29;96171.81;;;5.40;73.61
49178;BME280;35016;55.674;37.468;2023-03-12T05:26:06;96170.28;;;5.47;73.16
49178;BME280;35016;55.674;37.468;2023-03-12T05:29:28;96151.84;;;5.54;74.01
49178;BME280;35016;55.674;37.468;2023-03-12T05:33:47;96152.97;;;5.62;73.35
49178;BME280;35016;55.674;37.468;2023-03-12T05:37:49;96145.41;;;5.64;73.75
49178;BME280;35016;55.674;37.468;2023-03-12T05:40:49;96138.91;;;5.65;73.14
49178;BME280;35016;55.674;37.468;2023-03-12T05:44:56;96137.66;;;5.71;73.85
49178;BME280;35016;55.674;37.468;2023-03-12T05:48:46;96125.81;;;5.72;73.58
49178;BME280;35016;55.674;37.468;2023-03-12T05:52:22;96122.81;;;5.74;73.51
49178;BME280;35016;55.674;37.468;2023-03-12T05:55:34;96117.59;;;5.77;74.03
49178;BME280;35016;55.674;37.468;2023-03-12T06:01:55;96116.06;;;5.85;73.88
49178;BME280;35016;55.674;37.468;2023-03-12T06:24:18;96102.50;;;5.99;73.42
49178;BME280;35016;55.674;37.468;2023-03-12T06:28:37;96101.72;;;5.98;73.77
49178;BME280;35016;55.674;37.468;2023-03-12T06:39:37;96097.19;;;6.07;74.18
49178;BME280;35016;55.674;37.468;2023-03-12T06:43:13;96094.66;;;6.11;73.68
49178;BME280;35016;55.674;37.468;2023-03-12T06:46:33;96084.38;;;6.13;73.76
49178;BME280;35016;55.674;37.468;2023-03-12T06:49:28;96087.53;;;6.15;73.92
49178;BME280;35016;55.674;37.468;2023-03-12T06:52:14;96078.03;;;6.17;73.96
49178;BME280;35016;55.674;37.468;2023-03-12T06:55:13;96073.13;;;6.19;74.22
49178;BME280;35016;55.674;37.468;2023-03-12T06:57:42;96055.56;;;6.22;73.87
49178;BME280;35016;55.674;37.468;2023-03-12T07:04:26;96064.75;;;6.30;74.43
49178;BME280;35016;55.674;37.468;2023-03-12T07:07:33;96060.94;;;6.31;74.07
49178;BME280;35016;55.674;37.468;2023-03-12T07:10:38;96054.13;;;6.33;73.79
49178;BME280;35016;55.674;37.468;2023-03-12T07:13:23;96051.44;;;6.33;74.03
49178;BME280;35016;55.674;37.468;2023-03-12T07:16:39;96048.44;;;6.35;74.27
49178;BME280;35016;55.674;37.468;2023-03-12T07:19:11;96036.28;;;6.37;74.28
49178;BME280;35016;55.674;37.468;2023-03-12T07:21:47;96024.06;;;6.31;74.41
49178;BME280;35016;55.674;37.468;2023-03-12T07:24:15;96039.13;;;6.41;73.69
49178;BME280;35016;55.674;37.468;2023-03-12T07:26:42;96032.31;;;6.43;74.18
49178;BME280;35016;55.674;37.468;2023-03-12T07:29:18;96033.56;;;6.46;73.94
49178;BME280;35016;55.674;37.468;2023-03-12T07:32:01;96033.72;;;6.49;73.77
49178;BME280;35016;55.674;37.468;2023-03-12T07:34:45;96021.84;;;6.50;74.48
49178;BME280;35016;55.674;37.468;2023-03-12T07:37:30;96028.00;;;6.51;74.48
49178;BME280;35016;55.674;37.468;2023-03-12T07:39:59;96015.34;;;6.51;74.43
49178;BME280;35016;55.674;37.468;2023-03-12T07:42:35;96014.09;;;6.49;74.39
49178;BME280;35016;55.674;37.468;2023-03-12T07:45:05;96015.34;;;6.51;74.33
49178;BME280;35016;55.674;37.468;2023-03-12T07:47:33;96017.09;;;6.56;74.57
49178;BME280;35016;55.674;37.468;2023-03-12T07:50:01;96005.81;;;6.63;74.61
49178;BME280;35016;55.674;37.468;2023-03-12T07:52:45;96006.94;;;6.70;74.65
49178;BME280;35016;55.674;37.468;2023-03-12T07:55:13;96004.06;;;6.75;74.26
49178;BME280;35016;55.674;37.468;2023-03-12T07:57:44;96006.91;;;6.79;74.45
49178;BME280;35016;55.674;37.468;2023-03-12T08:00:14;96000.09;;;6.81;74.17
49178;BME280;35016;55.674;37.468;2023-03-12T08:03:01;95985.19;;;6.84;74.48
49178;BME280;35016;55.674;37.468;2023-03-12T08:06:00;95992.63;;;6.87;74.22
49178;BME280;35016;55.674;37.468;2023-03-12T08:08:43;95991.97;;;6.90;74.66
49178;BME280;35016;55.674;37.468;2023-03-12T08:11:11;95989.28;;;6.90;74.70
49178;BME280;35016;55.674;37.468;2023-03-12T08:13:52;95976.28;;;6.92;74.39
49178;BME280;35016;55.674;37.468;2023-03-12T08:16:24;95985.66;;;6.95;74.29
49178;BME280;35016;55.674;37.468;2023-03-12T08:19:06;95984.38;;;6.92;74.54
49178;BME280;35016;55.674;37.468;2023-03-12T08:21:34;95987.38;;;6.91;74.31
49178;BME280;35016;55.674;37.468;2023-03-12T08:27:53;95968.53;;;6.91;74.31
49178;BME280;35016;55.674;37.468;2023-03-12T08:30:44;95963.59;;;6.93;74.23
49178;BME280;35016;55.674;37.468;2023-03-12T08:33:36;95954.91;;;6.96;74.41
49178;BME280;35016;55.674;37.468;2023-03-12T08:36:13;95943.50;;;6.99;74.57
49178;BME280;35016;55.674;37.468;2023-03-12T08:38:43;95937.91;;;7.04;75.01
49178;BME280;35016;55.674;37.468;2023-03-12T08:41:20;95930.44;;;7.09;74.41
49178;BME280;35016;55.674;37.468;2023-03-12T08:43:49;95922.50;;;7.13;74.26
49178;BME280;35016;55.674;37.468;2023-03-12T08:46:21;95924.53;;;7.16;74.80
49178;BME280;35016;55.674;37.468;2023-03-12T08:49:02;95921.19;;;7.19;74.74
49178;BME280;35016;55.674;37.468;2023-03-12T08:55:51;95916.59;;;7.20;74.58
49178;BME280;35016;55.674;37.468;2023-03-12T09:00:14;95903.28;;;7.23;74.41
49178;BME280;35016;55.674;37.468;2023-03-12T09:17:48;95877.66;;;7.38;74.82
49178;BME280;35016;55.674;37.468;2023-03-12T09:20:41;95879.34;;;7.42;74.77
49178;BME280;35016;55.674;37.468;2023-03-12T09:23:36;95872.97;;;7.47;74.46
49178;BME280;35016;55.674;37.468;2023-03-12T09:26:03;95866.94;;;7.50;74.89
49178;BME280;35016;55.674;37.468;2023-03-12T09:28:30;95858.22;;;7.53;74.91
49178;BME280;35016;55.674;37.468;2023-03-12T09:30:59;95864.50;;;7.57;74.86
49178;BME280;35016;55.674;37.468;2023-03-12T09:33:27;95856.09;;;7.59;74.63
49178;BME280;35016;55.674;37.468;2023-03-12T09:35:55;95846.44;;;7.58;74.94
49178;BME280;35016;55.674;37.468;2023-03-12T09:38:24;95835.97;;;7.56;74.58
49178;BME280;35016;55.674;37.468;2023-03-12T09:40:51;95840.59;;;7.56;74.72
49178;BME280;35016;55.674;37.468;2023-03-12T09:43:26;95838.69;;;7.56;74.62
49178;BME280;35016;55.674;37.468;2023-03-12T09:45:58;95834.41;;;7.55;74.89
49178;BME280;35016;55.674;37.468;2023-03-12T09:48:34;95827.88;;;7.56;75.13
49178;BME280;35016;55.674;37.468;2023-03-12T09:51:04;95825.53;;;7.55;75.05
49178;BME280;35016;55.674;37.468;2023-03-12T09:53:43;95815.19;;;7.57;74.96
49178;BME280;35016;55.674;37.468;2023-03-12T09:56:19;95809.28;;;7.63;75.08
49178;BME280;35016;55.674;37.468;2023-03-12T09:58:47;95805.03;;;7.74;75.11
49178;BME280;35016;55.674;37.468;2023-03-12T10:03:51;95796.78;;;7.92;74.90
49178;BME280;35016;55.674;37.468;2023-03-12T10:06:21;95799.47;;;7.92;74.70
49178;BME280;35016;55.674;37.468;2023-03-12T10:27:32;95750.25;;;7.83;75.18
49178;BME280;35016;55.674;37.468;2023-03-12T10:30:12;95743.50;;;7.89;74.90
49178;BME280;35016;55.674;37.468;2023-03-12T10:32:40;95741.03;;;7.96;75.07
49178;BME280;35016;55.674;37.468;2023-03-12T10:37:42;95743.84;;;7.99;74.93
49178;BME280;35016;55.674;37.468;2023-03-12T10:40:44;95738.91;;;8.01;74.78
49178;BME280;35016;55.674;37.468;2023-03-12T10:43:11;95731.59;;;8.02;75.08
49178;BME280;35016;55.674;37.468;2023-03-12T10:48:25;95734.88;;;8.07;75.36
49178;BME280;35016;55.674;37.468;2023-03-12T10:51:05;95721.63;;;8.15;75.18
49178;BME280;35016;55.674;37.468;2023-03-12T10:53:40;95720.38;;;8.24;75.23
49178;BME280;35016;55.674;37.468;2023-03-12T10:56:12;95716.66;;;8.29;75.15
49178;BME280;35016;55.674;37.468;2023-03-12T10:58:45;95718.59;;;8.28;74.95
49178;BME280;35016;55.674;37.468;2023-03-12T11:04:12;95721.16;;;8.25;75.18
49178;BME280;35016;55.674;37.468;2023-03-12T11:06:45;95702.97;;;8.22;74.98
49178;BME280;35016;55.674;37.468;2023-03-12T11:09:30;95702.75;;;8.15;75.29
49178;BME280;35016;55.674;37.468;2023-03-12T11:36:21;95804.09;;;6.28;73.65
49178;BME280;35016;55.674;37.468;2023-03-12T11:39:11;95816.41;;;5.56;73.56
49178;BME280;35016;55.674;37.468;2023-03-12T11:57:18;95850.16;;;3.20;76.14
49178;BME280;35016;55.674;37.468;2023-03-12T12:00:12;95865.56;;;3.00;76.46
49178;BME280;35016;55.674;37.468;2023-03-12T12:21:58;95912.31;;;1.88;77.02
49178;BME280;35016;55.674;37.468;2023-03-12T12:27:25;95933.91;;;1.73;76.83
49178;BME280;35016;55.674;37.468;2023-03-12T12:35:33;95945.38;;;1.36;76.65
49178;BME280;35016;55.674;37.468;2023-03-12T12:38:21;95966.88;;;1.26;76.71
49178;BME280;35016;55.674;37.468;2023-03-12T12:43:38;95965.19;;;1.11;77.15
49178;BME280;35016;55.674;37.468;2023-03-12T12:46:25;95981.25;;;1.06;77.24
49178;BME280;35016;55.674;37.468;2023-03-12T12:48:56;96001.06;;;1.00;77.14
49178;BME280;35016;55.674;37.468;2023-03-12T12:51:27;95996.03;;;0.98;77.34
49178;BME280;35016;55.674;37.468;2023-03-12T12:54:04;95987.28;;;0.92;77.08
49178;BME280;35016;55.674;37.468;2023-03-12T12:59:21;96010.59;;;0.82;76.88
49178;BME280;35016;55.674;37.468;2023-03-12T13:01:54;96010.72;;;0.72;77.17
49178;BME280;35016;55.674;37.468;2023-03-12T13:04:33;96015.06;;;0.63;77.81
49178;BME280;35016;55.674;37.468;2023-03-12T13:09:47;96050.41;;;0.44;78.09
49178;BME280;35016;55.674;37.468;2023-03-12T13:12:20;96038.50;;;0.37;77.62
49178;BME280;35016;55.674;37.468;2023-03-12T13:14:51;96051.06;;;0.31;77.95
49178;BME280;35016;55.674;37.468;2023-03-12T13:20:12;96111.41;;;0.12;77.61
49178;BME280;35016;55.674;37.468;2023-03-12T13:33:48;96096.25;;;-0.47;78.16
49178;BME280;35016;55.674;37.468;2023-03-12T13:36:26;96094.44;;;-0.57;78.29
49178;BME280;35016;55.674;37.468;2023-03-12T13:38:55;96129.31;;;-0.64;78.35
49178;BME280;35016;55.674;37.468;2023-03-12T13:41:31;96155.13;;;-0.69;78.46
49178;BME280;35016;55.674;37.468;2023-03-12T13:52:24;96133.34;;;-0.81;78.76
49178;BME280;35016;55.674;37.468;2023-03-12T13:56:43;96164.75;;;-0.83;78.60
49178;BME280;35016;55.674;37.468;2023-03-12T16:04:01;96585.84;;;-3.20;78.64
49178;BME280;35016;55.674;37.468;2023-03-12T16:06:30;96591.41;;;-3.22;78.47
49178;BME280;35016;55.674;37.468;2023-03-12T16:54:17;96720.69;;;-3.24;78.73
49178;BME280;35016;55.674;37.468;2023-03-12T16:56:45;96752.47;;;-3.24;78.41
49178;BME280;35016;55.674;37.468;2023-03-12T16:59:22;96751.66;;;-3.24;78.22
49178;BME280;35016;55.674;37.468;2023-03-12T17:01:50;96763.63;;;-3.22;78.81
49178;BME280;35016;55.674;37.468;2023-03-12T17:04:17;96770.53;;;-3.21;78.18
49178;BME280;35016;55.674;37.468;2023-03-12T17:06:44;96794.38;;;-3.21;78.83
49178;BME280;35016;55.674;37.468;2023-03-12T17:09:11;96807.41;;;-3.19;78.88
49178;BME280;35016;55.674;37.468;2023-03-12T17:11:40;96801.28;;;-3.20;78.25
49178;BME280;35016;55.674;37.468;2023-03-12T17:14:15;96812.13;;;-3.21;78.82
49178;BME280;35016;55.674;37.468;2023-03-12T17:16:44;96814.22;;;-3.23;78.43
49178;BME280;35016;55.674;37.468;2023-03-12T17:19:12;96811.81;;;-3.25;78.13
49178;BME280;35016;55.674;37.468;2023-03-12T17:21:44;96829.88;;;-3.22;78.92
49178;BME280;35016;55.674;37.468;2023-03-12T17:24:22;96825.63;;;-3.23;78.50
49178;BME280;35016;55.674;37.468;2023-03-12T17:26:54;96830.69;;;-3.21;78.44
49178;BME280;35016;55.674;37.468;2023-03-12T17:29:28;96841.84;;;-3.19;78.41
49178;BME280;35016;55.674;37.468;2023-03-12T17:31:57;96856.69;;;-3.18;78.94
49178;BME280;35016;55.674;37.468;2023-03-12T17:34:25;96836.09;;;-3.16;78.51
49178;BME280;35016;55.674;37.468;2023-03-12T17:37:40;96853.84;;;-3.17;78.35
49178;BME280;35016;55.674;37.468;2023-03-12T17:51:31;96905.25;;;-3.18;78.59
49178;BME280;35016;55.674;37.468;2023-03-12T17:55:15;96902.91;;;-3.14;78.12
49178;BME280;35016;55.674;37.468;2023-03-12T18:02:45;96900.69;;;-3.05;77.78
49178;BME280;35016;55.674;37.468;2023-03-12T18:08:38;96911.84;;;-3.03;77.71
49178;BME280;35016;55.674;37.468;2023-03-12T18:11:08;96925.69;;;-3.01;78.23
49178;BME280;35016;55.674;37.468;2023-03-12T18:13:40;96923.03;;;-3.01;77.88
49178;BME280;35016;55.674;37.468;2023-03-12T18:16:08;96945.03;;;-3.01;77.41
49178;BME280;35016;55.674;37.468;2023-03-12T18:18:35;96944.22;;;-3.01;77.91
